Time;durP1;ratioP1;P1;durP2;ratioP2;P2;SDS_P1;SDS_P2;PMS_P1;PMS_P2;Temp;Humidity;BMP_temperature;BMP_pressure;BME280_temperature;BME280_humidity;BME280_pressure;Samples;Min_cycle;Max_cycle;Signal;HPM_P1;HPM_P2
2021/09/22 00:01:57;;;;;;;3.67;1.60;;;;;;;8.12;73.52;99602.43;1740258;80;21503;-70
2021/09/22 00:04:24;;;;;;;1.80;1.70;;;;;;;8.23;73.14;99601.20;1742090;80;21490;-69
2021/09/22 00:06:52;;;;;;;1.47;1.35;;;;;;;8.23;72.79;99595.96;1731324;81;21424;-69
2021/09/22 00:09:18;;;;;;;1.65;1.32;;;;;;;8.11;73.02;99599.39;1703060;82;21527;-70
2021/09/22 00:11:45;;;;;;;1.67;1.40;;;;;;;8.06;73.12;99596.09;1702912;82;21543;-69
2021/09/22 00:14:11;;;;;;;1.70;1.60;;;;;;;8.02;73.27;99591.84;1703023;83;21448;-68
2021/09/22 00:16:38;;;;;;;1.57;1.45;;;;;;;8.06;73.53;99588.67;1702992;83;22143;-69
2021/09/22 00:19:06;;;;;;;4.50;1.40;;;;;;;8.17;73.46;99586.11;1703028;82;21571;-69
2021/09/22 00:21:35;;;;;;;1.67;1.57;;;;;;;8.21;73.28;99580.29;1702886;82;21504;-69
2021/09/22 00:24:02;;;;;;;6.67;1.50;;;;;;;8.19;73.15;99582.98;1701985;82;21442;-69
2021/09/22 00:26:30;;;;;;;4.10;1.60;;;;;;;8.17;73.07;99571.71;1704329;82;21494;-69
2021/09/22 00:28:57;;;;;;;1.60;1.45;;;;;;;8.13;72.82;99577.94;1703498;82;21652;-69
2021/09/22 00:31:24;;;;;;;4.60;1.47;;;;;;;8.14;73.22;99574.88;1703418;82;21590;-70
2021/09/22 00:33:51;;;;;;;1.75;1.65;;;;;;;8.19;72.83;99580.38;1704722;82;21447;-69
2021/09/22 00:36:18;;;;;;;1.65;1.40;;;;;;;8.16;72.84;99576.53;1704668;82;21536;-70
2021/09/22 00:38:45;;;;;;;1.95;1.60;;;;;;;8.06;72.93;99581.69;1704486;82;21542;-70
2021/09/22 00:41:12;;;;;;;1.87;1.77;;;;;;;8.06;73.05;99572.95;1704474;82;21614;-70
2021/09/22 00:43:39;;;;;;;1.70;1.60;;;;;;;8.06;72.90;99575.14;1704652;82;20995;-71
2021/09/22 00:46:06;;;;;;;1.80;1.70;;;;;;;8.07;73.20;99572.91;1704720;82;21569;-71
2021/09/22 00:48:33;;;;;;;2.08;1.75;;;;;;;8.17;72.89;99572.14;1704748;82;21441;-71
2021/09/22 00:51:04;;;;;;;4.00;1.72;;;;;;;8.16;72.79;99567.36;1704457;82;21440;-69
2021/09/22 00:53:33;;;;;;;1.52;1.42;;;;;;;8.14;72.88;99567.88;1703153;82;21483;-71
2021/09/22 00:56:03;;;;;;;2.55;1.60;;;;;;;8.08;72.69;99560.66;1716454;81;21002;-72
2021/09/22 00:58:32;;;;;;;2.45;1.52;;;;;;;8.04;72.63;99559.91;1674605;84;21581;-70
2021/09/22 01:00:59;;;;;;;1.50;1.40;;;;;;;8.08;73.11;99554.13;1699294;82;21582;-72
2021/09/22 01:03:26;;;;;;;4.58;1.55;;;;;;;8.19;72.88;99565.97;1704462;82;21432;-70
2021/09/22 01:05:54;;;;;;;4.30;1.50;;;;;;;8.23;72.59;99553.63;1704786;82;21458;-71
2021/09/22 01:08:22;;;;;;;2.77;1.98;;;;;;;8.21;72.52;99561.95;1706237;82;21594;-69
2021/09/22 01:10:50;;;;;;;2.47;1.87;;;;;;;8.19;72.25;99559.41;1703440;82;21530;-70
2021/09/22 01:13:18;;;;;;;2.87;1.57;;;;;;;8.16;72.37;99559.51;1712374;82;21448;-70
2021/09/22 01:15:47;;;;;;;1.67;1.57;;;;;;;8.17;72.26;99552.07;1733932;81;21583;-69
2021/09/22 01:18:19;;;;;;;1.75;1.65;;;;;;;8.21;72.33;99550.63;1723483;82;21460;-69
2021/09/22 01:20:50;;;;;;;4.03;1.42;;;;;;;8.30;72.10;99548.55;1723054;81;21058;-69
2021/09/22 01:23:21;;;;;;;1.92;1.27;;;;;;;8.24;71.79;99542.68;1703006;82;21590;-71
2021/09/22 01:25:49;;;;;;;1.42;1.32;;;;;;;8.18;71.65;99552.45;1685598;82;21443;-71
2021/09/22 01:28:20;;;;;;;1.45;1.35;;;;;;;8.13;71.69;99543.05;1675699;84;21629;-70
2021/09/22 01:30:48;;;;;;;1.95;1.67;;;;;;;8.04;71.84;99544.66;1678479;82;21822;-69
2021/09/22 01:33:18;;;;;;;1.07;1.07;;;;;;;7.97;71.92;99545.34;1704037;82;21519;-69
2021/09/22 01:35:47;;;;;;;1.47;1.37;;;;;;;7.98;72.31;99546.57;1725995;82;21432;-69
2021/09/22 01:38:22;;;;;;;1.32;1.22;;;;;;;8.13;72.30;99543.89;1733896;81;21011;-69
2021/09/22 01:41:04;;;;;;;1.42;1.32;;;;;;;8.17;72.01;99547.26;1734011;81;21477;-69
2021/09/22 01:43:33;;;;;;;1.37;1.27;;;;;;;8.14;71.89;99544.30;1703010;83;22085;-69
2021/09/22 01:46:01;;;;;;;2.75;1.55;;;;;;;8.12;71.54;99544.81;1702896;82;21441;-69
2021/09/22 01:48:28;;;;;;;1.15;1.15;;;;;;;8.12;71.56;99545.28;1703219;82;21440;-68
2021/09/22 01:50:58;;;;;;;1.60;1.25;;;;;;;8.04;71.47;99543.35;1702859;82;21603;-70
2021/09/22 01:53:27;;;;;;;0.98;0.98;;;;;;;8.06;71.99;99544.16;1701249;82;21534;-69
2021/09/22 01:55:58;;;;;;;3.05;1.32;;;;;;;8.18;72.04;99544.59;1695536;83;21727;-69
2021/09/22 01:58:25;;;;;;;2.72;1.30;;;;;;;8.30;71.87;99544.61;1704054;82;21542;-69
2021/09/22 02:00:58;;;;;;;1.92;1.37;;;;;;;8.31;71.56;99538.94;1683176;82;21523;-69
2021/09/22 02:03:38;;;;;;;3.15;1.37;;;;;;;8.24;71.36;99532.20;1694201;82;20996;-68
2021/09/22 02:06:06;;;;;;;2.17;1.30;;;;;;;8.16;71.23;99539.86;1702458;82;21433;-66
2021/09/22 02:08:36;;;;;;;1.57;1.30;;;;;;;8.15;71.36;99537.30;1711520;82;21412;-64
2021/09/22 02:11:05;;;;;;;1.70;1.60;;;;;;;8.17;71.04;99536.36;1716815;82;21431;-67
2021/09/22 02:13:34;;;;;;;1.32;1.22;;;;;;;8.19;71.06;99541.52;1717458;82;26799;-67
2021/09/22 02:16:02;;;;;;;1.22;1.12;;;;;;;8.18;71.04;99537.20;1725406;81;21467;-68
2021/09/22 02:18:36;;;;;;;1.77;1.65;;;;;;;8.15;70.82;99536.83;1717286;81;21431;-67
2021/09/22 02:21:08;;;;;;;1.30;1.22;;;;;;;8.14;70.88;99538.22;1717428;81;21810;-67
2021/09/22 02:23:31;;;;;;;1.55;1.30;;;;;;;8.11;70.86;99531.30;1717752;81;21428;-68
2021/09/22 02:26:00;;;;;;;2.85;1.40;;;;;;;8.08;70.85;99531.43;1716125;82;21037;-68
2021/09/22 02:28:27;;;;;;;1.72;1.60;;;;;;;8.13;71.22;99535.19;1717474;81;21660;-68
2021/09/22 02:30:53;;;;;;;1.65;1.55;;;;;;;8.16;71.20;99530.70;1717354;82;21562;-68
2021/09/22 02:33:21;;;;;;;2.20;1.30;;;;;;;8.19;71.31;99531.03;1717617;82;21976;-68
2021/09/22 02:35:47;;;;;;;1.60;1.50;;;;;;;8.16;71.33;99534.63;1717048;82;21510;-68
2021/09/22 02:38:25;;;;;;;2.10;1.80;;;;;;;8.14;71.25;99531.67;1717866;81;21483;-68
2021/09/22 02:40:51;;;;;;;1.22;1.12;;;;;;;8.10;71.22;99535.28;1717550;81;21447;-72
2021/09/22 02:43:25;;;;;;;2.10;1.70;;;;;;;8.06;71.17;99531.94;1688586;83;21498;-71
2021/09/22 02:45:52;;;;;;;1.70;1.57;;;;;;;8.04;71.16;99531.11;1652273;85;21635;-70
2021/09/22 02:48:21;;;;;;;1.80;1.30;;;;;;;8.09;71.45;99527.89;1681805;84;21455;-71
2021/09/22 02:50:48;;;;;;;2.42;1.65;;;;;;;8.11;71.05;99531.30;1681689;83;21455;-72
2021/09/22 02:53:14;;;;;;;2.40;1.62;;;;;;;8.06;70.93;99529.33;1701921;83;21514;-71
2021/09/22 02:55:43;;;;;;;1.72;1.50;;;;;;;8.03;71.03;99533.34;1673057;83;21095;-69
2021/09/22 02:58:12;;;;;;;2.42;1.70;;;;;;;8.01;70.50;99535.63;1653757;85;21757;-68
2021/09/22 03:00:41;;;;;;;4.67;1.40;;;;;;;7.88;70.81;99533.41;1701139;83;21410;-68
2021/09/22 03:03:07;;;;;;;1.20;1.10;;;;;;;7.91;71.22;99529.81;1705739;82;21540;-68
2021/09/22 03:05:34;;;;;;;1.40;1.30;;;;;;;8.04;71.34;99528.48;1706068;83;21547;-68
2021/09/22 03:08:03;;;;;;;1.20;1.10;;;;;;;8.07;71.00;99534.09;1674394;83;21620;-68
2021/09/22 03:10:30;;;;;;;1.27;1.10;;;;;;;8.01;70.89;99536.93;1669888;84;21755;-68
2021/09/22 03:12:58;;;;;;;1.92;1.60;;;;;;;7.94;70.91;99533.66;1712230;82;21422;-69
2021/09/22 03:15:25;;;;;;;2.08;1.70;;;;;;;7.90;70.90;99530.74;1712136;82;21498;-68
2021/09/22 03:17:52;;;;;;;2.30;1.47;;;;;;;7.82;71.00;99532.73;1711577;81;21514;-68
2021/09/22 03:20:20;;;;;;;1.98;1.80;;;;;;;7.83;71.43;99531.84;1707980;81;21440;-68
2021/09/22 03:22:47;;;;;;;2.85;1.67;;;;;;;7.99;71.43;99531.74;1712429;82;21834;-68
2021/09/22 03:25:16;;;;;;;1.80;1.62;;;;;;;8.03;71.25;99533.80;1711918;81;21551;-69
2021/09/22 03:27:43;;;;;;;2.87;1.77;;;;;;;8.05;71.12;99539.38;1712090;82;21561;-68
2021/09/22 03:30:11;;;;;;;6.97;1.82;;;;;;;8.00;70.86;99537.36;1699149;82;21476;-69
2021/09/22 03:32:40;;;;;;;5.35;1.67;;;;;;;7.93;71.00;99530.62;1741016;81;21455;-69
2021/09/22 03:35:09;;;;;;;2.40;1.60;;;;;;;7.91;71.17;99529.81;1741988;81;22119;-68
2021/09/22 03:37:35;;;;;;;1.60;1.50;;;;;;;7.96;71.33;99530.06;1736111;81;21531;-69
2021/09/22 03:40:05;;;;;;;2.52;1.87;;;;;;;7.99;71.35;99534.36;1711755;82;21913;-68
2021/09/22 03:42:34;;;;;;;1.70;1.60;;;;;;;7.94;71.34;99533.66;1677871;83;21605;-74
2021/09/22 03:45:01;;;;;;;;;;;;;;;7.79;71.58;99537.17;1706808;82;20923;-72
2021/09/22 03:47:28;;;;;;;1.80;1.70;;;;;;;7.79;71.76;99530.63;1704706;82;22222;-70
2021/09/22 03:49:56;;;;;;;1.50;1.40;;;;;;;7.71;71.75;99535.73;1711440;81;21553;-70
2021/09/22 03:52:35;;;;;;;1.70;1.60;;;;;;;7.68;72.20;99539.74;1676810;83;21647;-71
2021/09/22 03:55:04;;;;;;;1.80;1.52;;;;;;;7.84;72.18;99537.50;1709046;81;21432;-71
2021/09/22 03:57:31;;;;;;;1.90;1.70;;;;;;;7.82;71.73;99532.30;1715119;82;21436;-71
2021/09/22 03:59:58;;;;;;;1.62;1.50;;;;;;;7.82;71.82;99537.97;1700207;83;21788;-71
2021/09/22 04:02:27;;;;;;;1.87;1.30;;;;;;;7.80;71.84;99533.66;1710676;83;21479;-71
2021/09/22 04:04:54;;;;;;;2.12;1.60;;;;;;;7.82;71.74;99535.36;1710581;83;21574;-74
2021/09/22 04:07:21;;;;;;;1.55;1.45;;;;;;;7.79;71.90;99537.63;1710796;83;21416;-69
2021/09/22 04:09:48;;;;;;;1.90;1.67;;;;;;;7.85;72.38;99533.95;1715935;82;21436;-69
2021/09/22 04:12:15;;;;;;;1.92;1.77;;;;;;;7.92;72.17;99536.78;1723737;81;21526;-69
2021/09/22 04:14:42;;;;;;;1.65;1.55;;;;;;;7.91;72.26;99529.39;1720199;81;21427;-67
2021/09/22 04:17:10;;;;;;;1.95;1.40;;;;;;;7.88;72.35;99529.48;1711381;82;21569;-67
2021/09/22 04:19:38;;;;;;;1.47;1.37;;;;;;;7.87;72.14;99532.14;1713212;82;21656;-68
2021/09/22 04:22:05;;;;;;;1.65;1.50;;;;;;;7.81;72.11;99526.66;1714541;81;21589;-68
2021/09/22 04:24:34;;;;;;;1.77;1.67;;;;;;;7.80;72.43;99531.05;1715161;81;21822;-68
2021/09/22 04:27:01;;;;;;;2.00;1.62;;;;;;;7.88;72.60;99526.02;1715821;81;21427;-68
2021/09/22 04:29:30;;;;;;;1.62;1.40;;;;;;;7.91;72.62;99529.39;1713301;83;21459;-68
2021/09/22 04:32:17;;;;;;;1.60;1.50;;;;;;;7.87;72.47;99531.67;1715924;82;21503;-69
2021/09/22 04:35:04;;;;;;;2.35;1.70;;;;;;;7.88;72.65;99529.94;1715751;81;21507;-68
2021/09/22 04:37:49;;;;;;;2.35;2.12;;;;;;;7.92;72.47;99526.30;1716074;82;21800;-69
2021/09/22 04:40:21;;;;;;;1.60;1.50;;;;;;;8.01;72.51;99526.00;1689816;82;21421;-69
2021/09/22 04:43:06;;;;;;;2.47;2.00;;;;;;;7.97;72.51;99528.33;1715645;82;21574;-68
2021/09/22 04:45:51;;;;;;;3.12;2.02;;;;;;;7.91;72.43;99526.77;1714885;81;21499;-68
2021/09/22 04:48:38;;;;;;;1.72;1.62;;;;;;;7.88;72.51;99532.55;1695832;81;21474;-68
2021/09/22 04:51:22;;;;;;;2.83;2.00;;;;;;;7.82;72.61;99531.00;1708335;82;21439;-68
2021/09/22 04:54:08;;;;;;;2.50;1.90;;;;;;;7.92;72.87;99530.23;1717062;81;20951;-68
2021/09/22 04:56:54;;;;;;;3.33;1.77;;;;;;;8.08;72.66;99531.43;1717124;82;21510;-69
2021/09/22 04:59:40;;;;;;;2.77;2.00;;;;;;;8.06;72.63;99533.25;1720384;81;21467;-68
2021/09/22 05:02:25;;;;;;;2.85;1.95;;;;;;;8.07;72.52;99532.78;1711088;82;21523;-71
2021/09/22 05:05:12;;;;;;;2.87;2.00;;;;;;;8.00;72.50;99541.29;1715952;81;22151;-68
2021/09/22 05:08:00;;;;;;;1.90;1.80;;;;;;;7.99;72.58;99539.59;1716288;83;21530;-61
2021/09/22 05:10:46;;;;;;;2.47;2.05;;;;;;;8.05;72.83;99532.83;1717373;82;21010;-65
2021/09/22 05:13:31;;;;;;;1.75;1.65;;;;;;;8.06;72.57;99529.75;1699059;81;21504;-64
2021/09/22 05:16:18;;;;;;;2.50;1.80;;;;;;;8.05;72.60;99538.07;1717017;82;21419;-69
2021/09/22 05:19:04;;;;;;;1.85;1.75;;;;;;;8.02;72.70;99538.16;1724582;81;21803;-66
2021/09/22 05:21:51;;;;;;;1.92;1.82;;;;;;;8.02;72.53;99534.70;1728472;81;20999;-68
2021/09/22 05:24:36;;;;;;;1.85;1.75;;;;;;;8.06;73.20;99537.61;1717251;81;21468;-70
2021/09/22 05:27:22;;;;;;;2.08;1.87;;;;;;;8.13;72.66;99543.05;1722388;81;21476;-69
2021/09/22 05:30:09;;;;;;;2.20;2.00;;;;;;;8.10;72.63;99536.16;1714455;82;21490;-71
2021/09/22 05:32:54;;;;;;;2.50;2.30;;;;;;;8.05;72.56;99537.22;1695460;81;22131;-74
2021/09/22 05:35:39;;;;;;;2.50;2.30;;;;;;;7.97;72.79;99542.27;1693770;81;21822;-72
2021/09/22 05:38:18;;;;;;;2.47;2.27;;;;;;;7.95;72.90;99540.61;1618469;86;21556;-66
2021/09/22 05:40:47;;;;;;;2.77;2.15;;;;;;;7.99;73.30;99542.22;1662538;84;21580;-66
2021/09/22 05:43:33;;;;;;;2.37;1.92;;;;;;;8.15;73.27;99543.84;1664263;85;21574;-71
2021/09/22 05:46:20;;;;;;;2.65;2.33;;;;;;;8.20;73.02;99539.31;1659764;85;21074;-67
2021/09/22 05:49:05;;;;;;;2.80;2.60;;;;;;;8.19;73.09;99545.01;1650357;84;21572;-67
2021/09/22 05:51:47;;;;;;;4.45;2.40;;;;;;;8.22;72.99;99545.81;1636424;83;21551;-66
2021/09/22 05:54:32;;;;;;;2.77;2.47;;;;;;;8.18;73.04;99540.67;1674914;83;21437;-66
2021/09/22 05:57:03;;;;;;;2.72;2.30;;;;;;;8.21;73.40;99538.84;1581683;86;21452;-66
2021/09/22 05:59:49;;;;;;;8.35;2.85;;;;;;;8.31;73.40;99541.56;1656521;83;22205;-67
2021/09/22 06:02:34;;;;;;;2.60;2.37;;;;;;;8.38;73.32;99536.48;1665828;83;21086;-64
2021/09/22 06:05:20;;;;;;;3.17;2.35;;;;;;;8.37;73.20;99530.86;1690483;83;21515;-67
2021/09/22 06:08:08;;;;;;;4.65;2.40;;;;;;;8.37;73.09;99536.95;1650821;84;21126;-67
2021/09/22 06:10:47;;;;;;;3.25;2.50;;;;;;;8.40;73.13;99542.55;1674209;83;21619;-69
2021/09/22 06:13:16;;;;;;;2.77;2.50;;;;;;;8.50;73.00;99543.95;1656850;85;21818;-67
2021/09/22 06:15:43;;;;;;;4.17;2.40;;;;;;;8.53;72.93;99535.11;1654813;85;21559;-69
2021/09/22 06:18:10;;;;;;;5.05;2.50;;;;;;;8.55;72.84;99534.60;1634462;85;28851;-70
2021/09/22 06:20:37;;;;;;;3.02;2.52;;;;;;;8.54;72.36;99537.69;1657513;85;21531;-70
2021/09/22 06:23:04;;;;;;;2.52;2.22;;;;;;;8.48;72.27;99536.60;1657695;85;21610;-69
2021/09/22 06:25:31;;;;;;;2.57;2.17;;;;;;;8.41;72.19;99536.39;1656739;85;21794;-69
2021/09/22 06:27:59;;;;;;;4.60;2.00;;;;;;;8.44;72.30;99541.98;1647042;85;20975;-70
2021/09/22 06:30:26;;;;;;;2.47;2.00;;;;;;;8.50;72.07;99545.27;1656163;85;21554;-69
2021/09/22 06:32:55;;;;;;;2.42;2.10;;;;;;;8.47;71.96;99536.19;1657449;85;21523;-67
2021/09/22 06:35:26;;;;;;;3.10;2.37;;;;;;;8.43;71.84;99542.92;1659402;85;21617;-67
2021/09/22 06:37:59;;;;;;;2.52;2.10;;;;;;;8.40;71.86;99549.10;1638357;84;21082;-68
2021/09/22 06:40:28;;;;;;;2.20;2.00;;;;;;;8.32;72.00;99548.50;1637375;84;21472;-68
2021/09/22 06:43:02;;;;;;;1.82;1.72;;;;;;;8.34;72.13;99547.55;1636871;84;21947;-69
2021/09/22 06:45:29;;;;;;;6.35;2.33;;;;;;;8.41;72.08;99548.17;1637375;86;21481;-69
2021/09/22 06:47:55;;;;;;;2.60;2.40;;;;;;;8.36;72.14;99544.42;1644524;84;21493;-66
2021/09/22 06:50:23;;;;;;;2.52;2.20;;;;;;;8.36;72.10;99548.35;1654886;84;21565;-66
2021/09/22 06:52:50;;;;;;;3.08;2.02;;;;;;;8.37;72.21;99546.58;1655027;84;21741;-67
2021/09/22 06:55:20;;;;;;;2.05;1.92;;;;;;;8.34;72.24;99541.44;1646502;84;21646;-69
2021/09/22 06:57:46;;;;;;;3.15;2.12;;;;;;;8.42;72.30;99542.50;1630159;86;21050;-67
2021/09/22 07:00:15;;;;;;;3.98;2.25;;;;;;;8.49;71.99;99541.38;1679031;83;21525;-66
2021/09/22 07:02:41;;;;;;;3.92;2.15;;;;;;;8.49;72.03;99536.14;1660242;84;21798;-69
2021/09/22 07:05:11;;;;;;;2.95;1.98;;;;;;;8.50;72.23;99536.55;1673594;84;21493;-68
2021/09/22 07:07:37;;;;;;;2.27;2.08;;;;;;;8.56;71.08;99543.72;1693930;83;21489;-67
2021/09/22 07:10:06;;;;;;;3.55;1.90;;;;;;;8.45;71.21;99540.63;1663830;84;21566;-66
2021/09/22 07:12:33;;;;;;;;;;;;;;;8.48;71.44;99544.47;1644987;86;21499;-62
2021/09/22 07:15:01;;;;;;;2.58;1.87;;;;;;;8.48;71.24;99535.76;1650048;85;21745;-62
2021/09/22 07:17:29;;;;;;;3.15;2.05;;;;;;;8.55;71.23;99547.70;1704614;82;21445;-65
2021/09/22 07:19:56;;;;;;;2.10;1.87;;;;;;;8.55;71.01;99542.46;1704732;82;21456;-63
2021/09/22 07:22:25;;;;;;;2.72;2.15;;;;;;;8.52;71.06;99549.98;1704894;82;21262;-68
2021/09/22 07:24:52;;;;;;;1.85;1.70;;;;;;;8.48;71.26;99551.48;1704622;82;21640;-68
2021/09/22 07:27:18;;;;;;;2.33;1.90;;;;;;;8.47;71.46;99546.67;1704370;82;21791;-65
2021/09/22 07:29:45;;;;;;;4.78;1.92;;;;;;;8.49;71.42;99551.86;1704564;82;21475;-68
2021/09/22 07:32:13;;;;;;;1.60;1.50;;;;;;;8.54;71.76;99544.23;1704637;82;21884;-68
2021/09/22 07:34:40;;;;;;;2.87;1.72;;;;;;;8.65;71.26;99549.09;1704642;82;21016;-67
2021/09/22 07:37:10;;;;;;;1.70;1.60;;;;;;;8.70;71.40;99547.17;1706532;81;21479;-66
2021/09/22 07:39:40;;;;;;;1.77;1.67;;;;;;;8.78;71.59;99554.75;1730357;81;21538;-66
2021/09/22 07:42:12;;;;;;;2.90;1.65;;;;;;;8.88;71.33;99552.17;1702195;82;21497;-66
2021/09/22 07:44:42;;;;;;;3.17;2.27;;;;;;;8.91;70.20;99549.45;1694025;83;21486;-66
2021/09/22 07:47:10;;;;;;;4.50;2.00;;;;;;;8.91;69.99;99549.45;1694170;82;20994;-58
2021/09/22 07:49:37;;;;;;;3.72;2.20;;;;;;;8.88;69.86;99554.80;1699356;82;21503;-62
2021/09/22 07:52:05;;;;;;;2.92;1.98;;;;;;;8.91;69.86;99548.57;1703976;83;21535;-60
2021/09/22 07:54:32;;;;;;;1.67;1.50;;;;;;;9.05;69.87;99546.30;1699938;82;21546;-64
2021/09/22 07:56:59;;;;;;;2.20;1.75;;;;;;;9.10;70.03;99548.30;1697235;83;21427;-62
2021/09/22 07:59:26;;;;;;;1.70;1.60;;;;;;;9.12;69.21;99542.53;1704516;82;21537;-62
2021/09/22 08:01:53;;;;;;;3.65;1.98;;;;;;;9.06;69.12;99542.77;1704870;82;21445;-63
2021/09/22 08:04:20;;;;;;;2.30;2.10;;;;;;;9.05;69.22;99544.98;1724940;81;21781;-64
2021/09/22 08:06:47;;;;;;;2.47;1.70;;;;;;;9.03;69.21;99547.28;1735738;81;21540;-63
2021/09/22 08:09:13;;;;;;;2.08;1.87;;;;;;;8.99;69.02;99543.91;1704531;82;21116;-64
2021/09/22 08:11:40;;;;;;;4.70;1.42;;;;;;;8.93;68.96;99547.62;1704861;82;21474;-63
2021/09/22 08:14:07;;;;;;;1.90;1.45;;;;;;;8.96;69.16;99551.42;1701149;82;21490;-63
2021/09/22 08:16:34;;;;;;;2.08;1.40;;;;;;;9.05;68.86;99547.61;1699129;83;22112;-64
2021/09/22 08:19:01;;;;;;;2.00;1.70;;;;;;;9.08;68.73;99543.56;1703566;82;21443;-65
2021/09/22 08:21:28;;;;;;;2.00;1.87;;;;;;;9.10;68.65;99540.89;1704508;82;21514;-63
2021/09/22 08:23:55;;;;;;;2.50;1.90;;;;;;;9.05;68.21;99545.45;1718155;81;21022;-63
2021/09/22 08:26:22;;;;;;;2.40;2.20;;;;;;;9.03;68.08;99546.81;1727646;81;21419;-59
2021/09/22 08:28:48;;;;;;;2.73;1.70;;;;;;;9.02;67.77;99543.78;1710271;81;21759;-63
2021/09/22 08:31:15;;;;;;;1.70;1.60;;;;;;;9.00;67.49;99540.83;1719324;81;21535;-64
2021/09/22 08:33:42;;;;;;;2.43;1.97;;;;;;;8.92;67.42;99539.34;1716235;81;21499;-65
2021/09/22 08:36:09;;;;;;;3.95;1.85;;;;;;;8.92;67.67;99539.81;1704650;82;21412;-64
2021/09/22 08:38:36;;;;;;;1.95;1.85;;;;;;;8.93;68.41;99538.91;1704552;82;20982;-63
2021/09/22 08:41:03;;;;;;;1.80;1.70;;;;;;;9.10;68.47;99538.27;1704510;83;21775;-65
2021/09/22 08:43:30;;;;;;;2.20;2.00;;;;;;;9.13;67.59;99531.11;1710312;82;21518;-66
2021/09/22 08:45:58;;;;;;;2.02;1.70;;;;;;;9.12;67.57;99528.57;1702690;82;21663;-59
2021/09/22 08:48:25;;;;;;;1.80;1.65;;;;;;;9.12;67.58;99530.73;1700096;83;21527;-59
2021/09/22 08:50:54;;;;;;;2.62;2.08;;;;;;;9.14;68.00;99531.52;1704693;83;21435;-59
2021/09/22 08:53:21;;;;;;;5.83;1.98;;;;;;;9.19;67.53;99531.33;1698050;82;21749;-57
2021/09/22 08:55:47;;;;;;;2.75;2.55;;;;;;;9.19;67.20;99532.64;1694887;82;21017;-57
2021/09/22 08:58:15;;;;;;;3.33;1.95;;;;;;;9.18;67.24;99534.88;1695955;82;21062;-58
2021/09/22 09:00:43;;;;;;;1.75;1.65;;;;;;;9.16;66.89;99531.00;1698483;82;21503;-57
2021/09/22 09:03:33;;;;;;;1.62;1.52;;;;;;;9.23;67.61;99524.20;1701453;82;21432;-58
2021/09/22 09:06:30;;;;;;;3.15;1.52;;;;;;;9.31;67.12;99525.61;1700830;82;21871;-57
2021/09/22 09:08:57;;;;;;;2.87;1.60;;;;;;;9.25;66.35;99532.86;1694790;82;21053;-57
2021/09/22 09:11:32;;;;;;;2.05;1.85;;;;;;;9.23;66.56;99535.56;1712490;81;21522;-57
2021/09/22 09:14:02;;;;;;;2.60;1.87;;;;;;;9.21;66.58;99529.53;1716292;82;22003;-57
2021/09/22 09:16:48;;;;;;;2.87;2.40;;;;;;;9.22;66.45;99530.38;1716684;82;21475;-57
2021/09/22 09:19:20;;;;;;;2.33;2.12;;;;;;;9.18;66.46;99527.02;1715988;83;21979;-57
2021/09/22 09:23:58;;;;;;;3.65;2.35;;;;;;;9.16;66.54;99527.53;1784660;79;23196;-56
2021/09/22 09:26:30;;;;;;;2.60;1.82;;;;;;;9.05;66.69;99539.73;1773123;80;21498;-56
2021/09/22 09:28:58;;;;;;;2.35;2.08;;;;;;;9.00;67.19;99535.12;1743060;81;21942;-57
2021/09/22 09:31:32;;;;;;;2.62;2.27;;;;;;;9.08;67.95;99530.45;1741684;81;21538;-58
2021/09/22 09:34:03;;;;;;;3.85;2.20;;;;;;;9.24;67.43;99532.48;1729087;81;21471;-56
2021/09/22 09:36:45;;;;;;;5.53;2.00;;;;;;;9.28;67.17;99523.09;1729474;80;21440;-58
2021/09/22 09:39:30;;;;;;;3.85;1.85;;;;;;;9.28;66.91;99534.91;1742495;81;20947;-59
2021/09/22 09:41:53;;;;;;;2.30;2.10;;;;;;;9.28;66.98;99532.28;1731295;81;21419;-59
2021/09/22 09:44:23;;;;;;;2.47;2.27;;;;;;;9.31;67.05;99525.61;1750564;81;20946;-58
2021/09/22 09:46:52;;;;;;;3.72;2.58;;;;;;;9.32;66.97;99531.27;1747015;81;21380;-59
2021/09/22 09:49:21;;;;;;;2.62;2.42;;;;;;;9.28;66.78;99528.34;1746273;81;21424;-59
2021/09/22 09:51:56;;;;;;;2.62;2.42;;;;;;;9.25;66.65;99537.67;1746156;80;21448;-59
2021/09/22 09:54:25;;;;;;;2.72;2.50;;;;;;;9.26;66.51;99536.73;1712975;81;21876;-59
2021/09/22 09:56:57;;;;;;;3.35;2.40;;;;;;;9.17;66.65;99534.47;1747579;81;21510;-58
2021/09/22 09:59:25;;;;;;;2.40;2.05;;;;;;;9.22;67.37;99535.16;1747492;81;21038;-59
2021/09/22 10:01:53;;;;;;;;;;;;;;;9.39;67.54;99524.00;1750122;81;21533;-59
2021/09/22 10:04:23;;;;;;;2.75;2.50;;;;;;;9.48;67.33;99529.34;1747812;81;20149;-59
2021/09/22 10:06:51;;;;;;;4.35;2.58;;;;;;;9.51;67.46;99531.83;1740078;80;22099;-59
2021/09/22 10:09:18;;;;;;;5.03;2.85;;;;;;;9.57;67.12;99527.66;1739998;80;20950;-59
2021/09/22 10:11:47;;;;;;;2.98;2.20;;;;;;;9.60;66.68;99528.84;1742212;80;21499;-59
2021/09/22 10:14:16;;;;;;;4.28;2.65;;;;;;;9.62;66.32;99532.72;1743857;80;21471;-61
2021/09/22 10:16:47;;;;;;;2.92;2.50;;;;;;;9.59;66.30;99531.52;1743373;80;21605;-60
2021/09/22 10:19:13;;;;;;;2.40;2.20;;;;;;;9.57;66.15;99527.66;1662318;83;21686;-59
2021/09/22 10:21:40;;;;;;;2.42;2.05;;;;;;;9.54;66.31;99522.53;1723045;81;21419;-59
2021/09/22 10:24:11;;;;;;;3.37;2.25;;;;;;;9.63;66.58;99528.72;1714162;82;21570;-58
2021/09/22 10:26:38;;;;;;;3.83;2.45;;;;;;;9.77;66.76;99532.55;1710505;81;21582;-59
2021/09/22 10:29:28;;;;;;;2.52;2.05;;;;;;;9.82;66.84;99527.50;1739004;80;21594;-59
2021/09/22 10:31:59;;;;;;;2.55;2.35;;;;;;;9.86;66.57;99533.02;1754769;80;21796;-59
2021/09/22 10:34:36;;;;;;;3.35;2.05;;;;;;;9.86;66.12;99534.80;1736564;80;21487;-58
2021/09/22 10:37:12;;;;;;;3.12;1.95;;;;;;;9.86;65.90;99530.86;1735818;80;21502;-57
2021/09/22 10:39:41;;;;;;;3.22;1.90;;;;;;;9.85;65.80;99530.45;1718652;80;21579;-58
2021/09/22 10:42:27;;;;;;;2.22;2.10;;;;;;;9.85;65.71;99527.83;1701220;83;21037;-59
2021/09/22 10:45:21;;;;;;;3.85;2.75;;;;;;;9.80;65.18;99525.41;1698506;83;22108;-58
2021/09/22 10:47:48;;;;;;;3.27;2.00;;;;;;;9.78;65.31;99528.55;1698941;83;21853;-59
2021/09/22 10:50:38;;;;;;;;;;;;;;;9.78;65.22;99525.08;1698282;83;21533;-57
2021/09/22 10:53:32;;;;;;;5.08;1.75;;;;;;;9.76;64.38;99523.83;1692303;83;20427;-58
2021/09/22 10:56:12;;;;;;;1.75;1.60;;;;;;;9.77;64.76;99525.98;1689391;83;21540;-57
2021/09/22 10:58:54;;;;;;;2.12;1.90;;;;;;;9.74;64.86;99519.10;1693711;82;21845;-57
2021/09/22 11:01:39;;;;;;;2.10;1.90;;;;;;;9.69;64.73;99520.59;1703354;82;21621;-58
2021/09/22 11:04:11;;;;;;;2.15;2.02;;;;;;;9.70;65.25;99521.00;1702195;82;21009;-58
2021/09/22 11:06:51;;;;;;;2.10;1.90;;;;;;;9.71;65.40;99516.59;1701343;83;21081;-57
2021/09/22 11:09:27;;;;;;;2.33;2.02;;;;;;;9.74;65.23;99521.26;1702786;82;21423;-58
2021/09/22 11:12:00;;;;;;;2.15;1.92;;;;;;;9.74;64.92;99521.73;1693166;83;22434;-58
2021/09/22 11:14:42;;;;;;;1.92;1.72;;;;;;;9.72;64.67;99518.31;1698065;83;21467;-58
2021/09/22 11:17:24;;;;;;;2.65;2.08;;;;;;;9.73;64.85;99519.54;1691230;83;21530;-58
2021/09/22 11:20:01;;;;;;;2.40;2.20;;;;;;;9.73;64.81;99520.84;1697196;83;21549;-58
2021/09/22 11:22:31;;;;;;;2.97;1.70;;;;;;;9.78;65.09;99510.17;1693521;83;21130;-58
2021/09/22 11:25:02;;;;;;;2.27;1.85;;;;;;;9.94;64.83;99519.56;1693217;82;21452;-58
2021/09/22 11:27:31;;;;;;;1.72;1.62;;;;;;;9.93;65.04;99512.63;1694879;84;21502;-58
2021/09/22 11:30:04;;;;;;;2.70;1.95;;;;;;;9.94;64.87;99515.19;1695392;82;21416;-58
2021/09/22 11:32:36;;;;;;;2.12;1.77;;;;;;;10.00;64.73;99519.33;1691951;82;21451;-58
2021/09/22 11:35:08;;;;;;;4.00;2.37;;;;;;;9.99;64.81;99516.30;1691282;83;21504;-58
2021/09/22 11:37:52;;;;;;;3.42;2.12;;;;;;;9.97;64.64;99518.13;1690270;82;21805;-58
2021/09/22 11:40:39;;;;;;;2.00;1.80;;;;;;;9.92;64.71;99512.20;1695209;84;21442;-59
2021/09/22 11:43:13;;;;;;;2.30;2.10;;;;;;;9.90;64.76;99521.93;1683425;83;21596;-59
2021/09/22 11:45:45;;;;;;;2.22;2.05;;;;;;;9.90;64.59;99511.42;1678859;84;21136;-58
2021/09/22 11:48:17;;;;;;;2.40;2.20;;;;;;;9.83;64.38;99509.97;1689941;84;21410;-58
2021/09/22 11:50:46;;;;;;;2.60;2.40;;;;;;;9.82;64.64;99510.44;1698675;82;22147;-59
2021/09/22 11:53:24;;;;;;;2.70;1.98;;;;;;;9.88;65.00;99512.80;1696590;82;21974;-58
2021/09/22 11:55:51;;;;;;;2.20;1.95;;;;;;;10.02;65.08;99512.67;1700966;82;21112;-57
2021/09/22 11:58:21;;;;;;;2.98;2.10;;;;;;;10.07;64.70;99512.87;1701333;82;21539;-57
2021/09/22 12:00:58;;;;;;;1.90;1.80;;;;;;;10.09;64.41;99511.50;1701905;82;21074;-57
2021/09/22 12:03:27;;;;;;;1.87;1.77;;;;;;;10.10;64.22;99507.96;1699097;82;21514;-59
2021/09/22 12:06:17;;;;;;;3.58;1.80;;;;;;;10.05;63.74;99513.39;1698564;82;21586;-58